Time;durP1;ratioP1;P1;durP2;ratioP2;P2;SDS_P1;SDS_P2;PMS_P1;PMS_P2;Temp;Humidity;BMP_temperature;BMP_pressure;BME280_temperature;BME280_humidity;BME280_pressure;Samples;Min_cycle;Max_cycle;Signal;HPM_P1;HPM_P2
2023/10/13 00:01:52;;;;;;;13.70;12.25;;;15.00;99.90;;;-141.84;100.00;56765.13;5004463;28;20245;-59
2023/10/13 00:04:22;;;;;;;14.23;12.57;;;14.90;99.90;;;-141.84;100.00;55189.84;5028107;28;20700;-59
2023/10/13 00:06:52;;;;;;;13.77;12.05;;;15.10;99.90;;;-141.84;100.00;52828.09;5044142;28;20286;-58
2023/10/13 00:09:25;;;;;;;14.32;12.70;;;15.10;99.90;;;-141.84;100.00;50992.13;5036227;28;20320;-59
2023/10/13 00:11:55;;;;;;;14.27;12.35;;;15.10;99.90;;;-141.84;100.00;49681.28;5044199;28;20235;-60
2023/10/13 00:14:32;;;;;;;13.98;12.48;;;15.10;99.90;;;-141.84;100.00;49157.03;5044465;28;20233;-59
2023/10/13 00:17:04;;;;;;;14.68;12.30;;;15.10;99.90;;;-141.84;100.00;46536.97;5043927;28;20282;-59
2023/10/13 00:19:44;;;;;;;12.85;11.52;;;15.20;99.90;;;-141.84;100.00;41361.25;5028713;28;20317;-60
2023/10/13 00:22:15;;;;;;;13.80;11.43;;;15.20;99.90;;;-141.84;100.00;33650.25;5023808;28;20234;-59
2023/10/13 00:24:46;;;;;;;14.65;11.00;;;15.20;99.90;;;-141.84;100.00;29340.97;5023562;28;20233;-58
2023/10/13 00:27:29;;;;;;;12.98;11.50;;;15.20;99.90;;;-141.84;100.00;27192.19;5016304;28;20657;-59
2023/10/13 00:30:17;;;;;;;12.60;10.90;;;15.20;99.90;;;-141.84;100.00;25602.22;5023955;28;20213;-59
2023/10/13 00:32:53;;;;;;;14.18;11.20;;;15.10;99.90;;;-141.84;100.00;24889.91;5023822;28;20230;-59
2023/10/13 00:35:28;;;;;;;11.48;10.38;;;15.10;99.90;;;-141.84;100.00;24946.88;5016240;28;20233;-59
2023/10/13 00:38:03;;;;;;;13.63;11.00;;;14.90;99.90;;;-141.84;100.00;25813.91;5023238;28;20233;-58
2023/10/13 00:40:43;;;;;;;12.70;10.90;;;14.90;99.90;;;-141.84;100.00;26911.19;5022663;28;20248;-59
2023/10/13 00:46:12;;;;;;;11.60;10.25;;;14.80;99.90;;;-141.84;100.00;28049.50;5023629;28;20600;-59
2023/10/13 00:48:52;;;;;;;11.90;10.52;;;14.70;99.90;;;-141.84;100.00;29793.28;5023594;28;20225;-60
2023/10/13 00:51:32;;;;;;;12.07;10.68;;;14.80;99.90;;;-141.84;100.00;33054.75;4997756;28;20444;-58
2023/10/13 00:54:07;;;;;;;11.70;10.32;;;14.70;99.90;;;-141.84;100.00;39173.22;5023452;28;20296;-59
2023/10/13 00:56:40;;;;;;;15.27;11.25;;;14.70;99.90;;;-141.84;100.00;46275.03;5023229;28;20212;-59
2023/10/13 00:59:09;;;;;;;12.52;10.43;;;14.70;99.90;;;-141.84;100.00;52303.44;5015840;28;20265;-59
2023/10/13 01:01:42;;;;;;;13.02;11.02;;;14.80;99.90;;;-141.84;100.00;56239.94;5023183;28;20241;-59
2023/10/13 01:04:12;;;;;;;13.45;10.68;;;14.80;99.90;;;-141.84;100.00;59917.56;5022296;28;20317;-59
2023/10/13 01:06:40;;;;;;;11.65;10.27;;;14.90;99.90;;;-141.84;100.00;62283.53;5022973;28;20249;-58
2023/10/13 01:09:13;;;;;;;12.30;10.60;;;14.90;99.90;;;-141.84;100.00;63072.50;5015147;28;20231;-59
2023/10/13 01:11:44;;;;;;;12.48;10.82;;;15.00;99.90;;;-141.84;100.00;62809.50;5023328;28;20288;-59
2023/10/13 01:14:12;;;;;;;12.55;10.35;;;15.00;99.90;;;-141.84;100.00;61494.72;5022789;28;20281;-58
2023/10/13 01:16:44;;;;;;;10.73;9.73;;;15.00;99.90;;;-141.84;100.00;59917.56;5023027;28;20226;-59
2023/10/13 01:19:12;;;;;;;11.30;10.07;;;15.00;99.90;;;-141.84;100.00;58341.03;5003291;28;20276;-59
2023/10/13 01:21:41;;;;;;;11.65;10.48;;;15.10;99.90;;;-141.84;100.00;56502.53;5020392;28;20265;-59
2023/10/13 01:24:13;;;;;;;11.90;10.05;;;15.10;99.90;;;-141.84;100.00;53615.19;5022616;28;20760;-59
2023/10/13 01:26:42;;;;;;;11.30;10.15;;;15.10;99.90;;;-141.84;100.00;50205.56;5022581;28;20630;-59
2023/10/13 01:29:13;;;;;;;10.70;9.13;;;15.10;99.90;;;-141.84;100.00;47584.78;5016064;28;20233;-59
2023/10/13 01:31:46;;;;;;;11.65;9.88;;;15.10;99.90;;;-141.84;100.00;43065.97;5022808;28;20795;-59
2023/10/13 01:34:21;;;;;;;11.98;10.18;;;15.20;99.90;;;-141.84;100.00;37080.25;5022349;28;20292;-59
2023/10/13 01:36:51;;;;;;;11.52;9.90;;;15.10;99.90;;;-141.84;100.00;29581.38;5022250;28;20304;-58
2023/10/13 01:39:26;;;;;;;10.88;9.23;;;15.20;99.90;;;-141.84;99.88;26449.03;5007035;28;20222;-59
2023/10/13 01:41:56;;;;;;;11.65;9.32;;;15.20;99.90;;;-141.84;99.59;25085.28;5002757;28;20229;-59
2023/10/13 01:44:26;;;;;;;10.65;9.50;;;15.20;99.90;;;-141.84;99.01;22306.31;5007984;28;20237;-59
2023/10/13 01:46:54;;;;;;;14.38;9.90;;;15.20;99.90;;;-141.84;98.66;21586.47;5022705;28;20276;-59
2023/10/13 01:49:23;;;;;;;12.25;9.93;;;15.20;99.90;;;-141.84;98.17;21002.94;5014890;28;20230;-58
2023/10/13 01:51:50;;;;;;;10.50;8.60;;;15.20;99.90;;;-141.84;98.15;20948.06;5022366;28;20222;-58
2023/10/13 01:54:21;;;;;;;10.00;8.95;;;15.30;99.90;;;-141.84;98.15;21025.31;5022339;28;20233;-59
2023/10/13 01:56:50;;;;;;;11.95;8.50;;;15.30;99.90;;;-141.84;97.94;20846.41;5022677;28;20221;-58
2023/10/13 01:59:17;;;;;;;9.85;8.82;;;15.30;99.90;;;-141.84;97.56;20651.25;5015349;28;20249;-59
2023/10/13 02:01:46;;;;;;;9.10;8.18;;;15.30;99.90;;;-141.84;97.30;20484.56;5022488;28;20234;-59
2023/10/13 02:04:14;;;;;;;9.82;8.18;;;15.30;99.90;;;-141.84;97.15;20397.16;5022428;28;20276;-58
2023/10/13 02:06:43;;;;;;;9.70;7.88;;;15.30;99.90;;;-141.84;97.05;20366.69;5028947;28;20241;-58
2023/10/13 02:09:12;;;;;;;8.90;8.00;;;15.30;99.90;;;-141.84;97.44;20598.41;5034791;28;20214;-58
2023/10/13 02:11:43;;;;;;;10.15;8.25;;;15.30;99.90;;;-141.84;97.64;20862.69;5042192;28;20288;-59
2023/10/13 02:14:12;;;;;;;8.75;7.85;;;15.30;99.90;;;-141.84;97.83;20927.72;5042275;28;20256;-59
2023/10/13 02:16:40;;;;;;;8.50;7.47;;;15.20;99.90;;;-141.84;97.41;20635.00;5044454;28;20716;-58
2023/10/13 02:19:09;;;;;;;9.82;7.97;;;15.20;99.90;;;-141.84;97.49;20657.34;5016773;28;20241;-59
2023/10/13 02:21:39;;;;;;;8.20;7.50;;;15.20;99.90;;;-141.84;97.60;20728.50;5006549;28;20234;-59
2023/10/13 02:24:13;;;;;;;8.90;8.00;;;15.10;99.90;;;-141.84;97.96;21102.56;5006397;28;20207;-58
2023/10/13 02:26:40;;;;;;;9.15;7.40;;;15.00;99.90;;;-141.84;98.35;21696.25;5006703;28;20210;-59
2023/10/13 02:29:12;;;;;;;8.55;7.72;;;14.90;99.90;;;-141.84;98.42;22139.56;4998803;28;20239;-58
2023/10/13 02:31:43;;;;;;;10.40;8.30;;;14.80;99.90;;;-141.84;98.75;23172.75;5006518;28;20235;-59
2023/10/13 02:34:13;;;;;;;9.18;8.20;;;14.80;99.90;;;-141.84;98.98;24533.81;5006042;28;20239;-59
2023/10/13 02:36:48;;;;;;;8.70;7.80;;;14.80;99.90;;;-141.84;98.91;24179.75;5006423;28;20726;-59
2023/10/13 02:39:17;;;;;;;8.57;7.63;;;14.80;99.90;;;-141.84;98.99;24649.78;4994807;28;20312;-59
2023/10/13 02:41:48;;;;;;;11.73;8.60;;;14.70;99.90;;;-141.84;99.24;26607.84;5019592;28;20328;-59
2023/10/13 02:44:26;;;;;;;8.30;7.50;;;14.60;99.90;;;-141.84;99.72;30510.56;5006116;28;20650;-59
2023/10/13 02:46:56;;;;;;;8.68;7.78;;;14.60;99.90;;;-141.84;100.00;39773.72;5005354;28;20324;-58
2023/10/13 02:49:27;;;;;;;8.88;7.97;;;14.60;99.90;;;-141.84;100.00;49157.03;4992408;28;20677;-58
2023/10/13 02:51:58;;;;;;;9.70;8.18;;;14.60;99.90;;;-141.84;100.00;55977.41;5006016;28;20223;-59
2023/10/13 02:54:30;;;;;;;9.25;7.95;;;14.60;99.90;;;-141.84;100.00;60443.22;5005403;28;20330;-58
2023/10/13 02:57:03;;;;;;;9.85;8.35;;;14.60;99.90;;;-141.84;100.00;64650.94;5005168;28;20269;-59
2023/10/13 02:59:39;;;;;;;9.23;7.70;;;14.60;99.90;;;-141.84;100.00;68599.69;5006439;28;20214;-59
2023/10/13 03:02:20;;;;;;;9.15;7.57;;;14.60;99.90;;;-141.84;100.00;71497.94;5005800;28;20365;-58
2023/10/13 03:04:48;;;;;;;9.20;7.97;;;14.50;99.90;;;-141.84;100.00;74134.56;5037277;28;20283;-59
2023/10/13 03:07:22;;;;;;;8.80;7.95;;;14.40;99.90;;;-141.84;100.00;75981.22;5037483;28;20239;-59
2023/10/13 03:09:50;;;;;;;10.23;8.77;;;14.40;99.90;;;-141.84;100.00;78092.72;5045051;28;20722;-59
2023/10/13 03:12:20;;;;;;;8.27;7.47;;;14.40;99.90;;;-141.84;100.00;80205.34;5044819;28;20267;-56
2023/10/13 03:14:47;;;;;;;9.18;8.23;;;14.40;99.90;;;-141.84;100.00;82319.06;5045241;28;20677;-59
2023/10/13 03:17:19;;;;;;;11.63;8.82;;;14.30;99.90;;;-141.84;100.00;84433.91;5037191;28;20249;-60
2023/10/13 03:19:49;;;;;;;9.48;8.35;;;14.40;99.90;;;-141.84;100.00;83640.72;5012840;28;20793;-60
2023/10/13 03:22:18;;;;;;;10.65;8.68;;;14.40;99.90;;;-141.84;100.00;84433.91;5005556;28;20223;-59
2023/10/13 03:24:47;;;;;;;11.93;8.52;;;14.40;99.90;;;-141.84;100.00;84698.34;5005313;28;20641;-59
2023/10/13 03:27:17;;;;;;;9.50;8.50;;;14.40;99.90;;;-141.84;100.00;85756.25;4996899;28;20227;-58
2023/10/13 03:29:46;;;;;;;9.27;8.25;;;14.30;99.90;;;-141.84;100.00;87079.03;5005290;28;20222;-60
2023/10/13 03:32:17;;;;;;;10.23;8.95;;;14.30;99.90;;;-141.84;100.00;88666.94;5005330;28;20234;-59
2023/10/13 03:35:11;;;;;;;10.43;8.98;;;14.30;99.90;;;-141.84;100.00;91314.81;5004902;28;20241;-59
2023/10/13 03:37:39;;;;;;;10.23;8.93;;;14.40;99.90;;;-141.84;100.00;93169.38;5004791;28;20322;-58
2023/10/13 03:40:33;;;;;;;11.25;8.95;;;14.40;99.90;;;-141.84;100.00;92639.44;4997689;28;20230;-59
2023/10/13 03:43:04;;;;;;;12.63;9.48;;;14.40;99.90;;;-141.84;100.00;93434.41;5004804;28;20227;-59
2023/10/13 03:45:37;;;;;;;14.43;9.98;;;14.50;99.90;;;-141.84;100.00;91844.63;5010420;28;20275;-60
2023/10/13 03:48:27;;;;;;;13.10;10.70;;;14.60;99.90;;;-141.84;100.00;91314.81;5024603;28;20209;-59
2023/10/13 03:51:03;;;;;;;12.10;10.00;;;14.60;99.90;;;-141.84;100.00;91314.81;5024386;28;20198;-59
2023/10/13 03:53:35;;;;;;;14.50;10.75;;;14.70;99.90;;;-141.84;100.00;88666.94;5024828;28;20677;-58
2023/10/13 03:56:12;;;;;;;12.95;10.98;;;14.80;99.90;;;-141.84;100.00;88666.94;5024305;28;20230;-58
2023/10/13 03:58:45;;;;;;;13.07;10.95;;;14.80;99.90;;;-141.84;100.00;88666.94;5024463;28;20283;-60
2023/10/13 04:01:15;;;;;;;12.57;10.68;;;14.90;99.90;;;-141.84;100.00;88137.56;5016847;28;20226;-59
2023/10/13 04:04:02;;;;;;;14.13;10.48;;;14.90;99.90;;;-141.84;100.00;86549.84;5024597;28;20238;-59
2023/10/13 04:07:01;;;;;;;14.82;11.32;;;15.00;99.90;;;-141.84;100.00;83640.72;5023906;28;20261;-59
2023/10/13 04:10:09;;;;;;;13.05;11.10;;;15.00;99.90;;;-141.84;100.00;84698.34;5024166;28;20234;-58
2023/10/13 04:15:36;;;;;;;11.63;10.40;;;15.20;99.90;;;-141.84;100.00;64650.94;5016224;28;20258;-59
2023/10/13 04:18:14;;;;;;;13.20;10.43;;;15.10;99.90;;;-141.84;100.00;63335.53;5021885;28;20244;-60
2023/10/13 04:20:46;;;;;;;11.23;9.80;;;15.20;99.90;;;-141.84;99.35;47060.84;5004759;28;20302;-58
2023/10/13 04:23:25;;;;;;;10.75;9.25;;;15.30;99.90;;;-141.84;98.90;35600.56;4996686;28;20318;-58
2023/10/13 04:26:07;;;;;;;11.40;9.25;;;15.30;99.90;;;-141.84;98.56;30510.56;5003502;28;20277;-58
2023/10/13 04:28:37;;;;;;;11.98;9.50;;;15.30;99.90;;;-141.84;98.19;27589.25;5004006;28;20258;-59
2023/10/13 04:31:24;;;;;;;10.70;9.20;;;15.30;99.90;;;-141.84;98.24;27410.06;4996418;28;20235;-59
2023/10/13 04:33:55;;;;;;;10.82;9.70;;;15.30;99.90;;;-141.84;98.66;31132.19;5013963;28;20292;-59
2023/10/13 04:36:45;;;;;;;13.35;10.23;;;15.30;99.90;;;-141.84;98.82;35549.53;5006271;28;20301;-60
2023/10/13 04:39:29;;;;;;;11.82;9.85;;;15.20;99.90;;;-141.84;98.82;37049.63;4995597;28;20254;-59
2023/10/13 04:42:10;;;;;;;9.98;8.85;;;15.20;99.90;;;-141.84;99.09;41616.72;5003641;28;20207;-60
2023/10/13 04:44:52;;;;;;;10.27;9.25;;;15.10;99.90;;;-141.84;99.22;47584.78;5003610;28;20258;-62
2023/10/13 04:47:21;;;;;;;11.10;9.35;;;15.10;99.90;;;-141.84;99.46;51254.38;5000580;28;20772;-63
2023/10/13 04:49:53;;;;;;;12.18;9.43;;;15.10;99.90;;;-141.84;99.43;53090.44;5022728;28;20713;-63
2023/10/13 04:53:01;;;;;;;11.38;9.07;;;15.00;99.90;;;-141.84;99.39;53615.19;5023833;28;20231;-63
2023/10/13 04:55:59;;;;;;;10.88;9.75;;;15.00;99.90;;;-141.84;99.52;57290.34;5022518;28;20747;-64
2023/10/13 05:04:21;;;;;;;11.20;9.82;;;15.00;99.90;;;-141.84;100.00;67019.72;5002082;28;20249;-64
2023/10/13 05:48:54;;;;;;;11.45;9.18;;;15.30;99.90;;;-141.84;98.93;54402.44;5016194;28;20230;-59
2023/10/13 05:51:43;;;;;;;10.68;8.25;;;15.30;99.90;;;-141.84;98.23;42926.97;4998859;28;25155;-58
2023/10/13 06:30:12;;;;;;;10.27;9.02;;;15.90;99.90;;;-141.84;94.05;20561.81;5004036;28;20204;-59
2023/10/13 06:32:41;;;;;;;9.60;8.60;;;15.90;99.90;;;-141.84;93.94;20502.88;5025060;28;20198;-59
2023/10/13 06:35:18;;;;;;;11.27;9.23;;;15.90;99.90;;;-141.84;94.01;20602.47;5017338;28;20222;-59
2023/10/13 06:37:48;;;;;;;10.40;9.30;;;15.90;99.90;;;-141.84;93.49;20411.41;5025995;28;20287;-61
2023/10/13 06:40:25;;;;;;;10.65;9.20;;;16.00;99.90;;;-141.84;93.56;20382.94;5011845;28;20284;-59
2023/10/13 06:42:55;;;;;;;12.70;9.60;;;16.00;99.90;;;-141.84;93.32;20389.03;5025113;28;20253;-59
2023/10/13 06:45:28;;;;;;;11.13;8.82;;;16.00;99.90;;;-141.84;91.74;20149.19;5017760;28;20237;-59
2023/10/13 06:47:58;;;;;;;11.13;8.77;;;16.10;99.90;;;-141.84;90.96;20053.66;5024507;28;20210;-59
2023/10/13 06:50:28;;;;;;;11.25;8.70;;;16.20;99.90;;;-141.84;91.65;20122.78;5026226;28;20218;-60
2023/10/13 06:52:57;;;;;;;9.60;7.90;;;16.20;99.90;;;-141.84;92.17;20179.69;5023669;28;20479;-58
2023/10/13 06:55:27;;;;;;;11.32;8.95;;;16.20;99.90;;;-141.84;91.68;20141.06;5014769;28;20640;-59
2023/10/13 06:57:59;;;;;;;8.77;7.88;;;16.20;99.90;;;-141.84;92.09;20193.91;5025487;28;20280;-59
2023/10/13 07:00:29;;;;;;;7.97;6.97;;;16.30;99.90;;;-141.84;92.32;20287.41;5022737;28;20326;-59
2023/10/13 07:03:06;;;;;;;10.25;9.20;;;16.40;99.90;;;-141.84;92.69;20317.91;5019948;28;20260;-60
2023/10/13 07:05:37;;;;;;;12.60;8.70;;;16.40;99.90;;;-141.84;92.38;20273.19;5018911;28;20231;-59
2023/10/13 07:08:07;;;;;;;10.05;8.98;;;16.40;99.90;;;-141.84;92.35;20301.63;5025186;28;20280;-59
2023/10/13 07:10:44;;;;;;;10.93;9.05;;;16.50;99.90;;;-141.84;92.11;20283.34;5025263;28;20230;-59
2023/10/13 07:13:14;;;;;;;9.85;8.70;;;16.60;99.90;;;-141.84;91.38;20200.00;5017666;28;20720;-58
2023/10/13 07:15:45;;;;;;;9.45;8.10;;;16.70;99.90;;;-141.84;91.19;20179.69;5023640;28;20233;-58
2023/10/13 07:18:22;;;;;;;11.27;8.77;;;16.80;99.90;;;-141.84;90.76;20175.63;5021308;28;20664;-60
2023/10/13 07:20:52;;;;;;;10.27;8.00;;;16.80;99.90;;;-141.84;89.05;20108.53;5014525;28;20211;-58
2023/10/13 07:23:20;;;;;;;8.73;7.65;;;16.90;99.90;;;-141.84;88.54;20082.13;5001568;28;20225;-60
2023/10/13 07:26:02;;;;;;;8.75;7.18;;;17.00;99.90;;;-141.84;87.92;20124.81;5025004;28;20303;-60
2023/10/13 07:28:31;;;;;;;8.40;6.78;;;17.00;99.90;;;-141.84;87.21;20069.94;5024557;28;20738;-59
2023/10/13 07:31:12;;;;;;;9.18;7.05;;;17.10;99.90;;;-141.84;87.79;20074.00;5024526;28;20736;-59
2023/10/13 07:33:43;;;;;;;9.00;6.93;;;17.10;99.90;;;-141.84;87.48;20094.31;5023790;28;20265;-59
2023/10/13 07:36:27;;;;;;;7.72;6.88;;;17.10;99.90;;;-141.84;86.80;20071.97;5024805;28;20293;-59
2023/10/13 07:39:20;;;;;;;9.68;7.05;;;17.10;99.90;;;-141.84;86.78;20063.81;5020126;28;20234;-60
2023/10/13 07:41:54;;;;;;;10.15;6.80;;;17.10;99.90;;;-141.84;86.18;20102.44;5005289;28;20207;-59
2023/10/13 07:44:28;;;;;;;7.57;6.80;;;17.10;99.90;;;-141.84;86.62;20110.56;5005592;28;20239;-59
2023/10/13 07:46:59;;;;;;;7.22;6.22;;;17.20;99.90;;;-141.84;86.89;20082.13;5004965;28;20226;-59
2023/10/13 07:49:33;;;;;;;10.45;6.72;;;17.20;99.90;;;-141.84;85.97;20128.88;5002314;28;20321;-61
2023/10/13 07:52:14;;;;;;;7.30;6.03;;;17.30;99.90;;;-141.84;85.88;20126.84;5004009;28;20607;-59
2023/10/13 07:54:49;;;;;;;6.50;5.90;;;17.30;99.90;;;-141.84;86.45;20126.84;5004250;28;20222;-60
2023/10/13 07:57:17;;;;;;;6.75;6.00;;;17.30;99.90;;;-141.84;86.62;20173.59;4999271;28;20245;-59
2023/10/13 07:59:51;;;;;;;8.27;6.30;;;17.40;99.90;;;-141.84;86.17;20100.41;5009745;28;20214;-59
2023/10/13 08:05:23;;;;;;;7.10;6.40;;;17.50;99.90;;;-141.84;84.55;20183.75;5072834;27;20643;-59
2023/10/13 08:07:55;;;;;;;8.25;6.10;;;17.50;99.90;;;-141.84;83.48;20197.97;5048105;28;20275;-57
2023/10/13 08:10:29;;;;;;;7.45;6.15;;;17.70;99.90;;;-141.84;84.43;20161.38;5038807;28;20267;-59
2023/10/13 08:12:58;;;;;;;7.85;6.10;;;17.70;99.90;;;-141.84;85.11;20137.00;5039302;28;20712;-60
2023/10/13 08:15:33;;;;;;;8.13;6.38;;;17.70;99.90;;;-141.84;85.15;20128.88;5034238;28;20314;-59
2023/10/13 08:18:04;;;;;;;6.75;5.60;;;17.70;99.90;;;-141.84;85.15;20167.47;5037800;28;20296;-61
2023/10/13 08:20:40;;;;;;;8.18;6.28;;;17.70;99.90;;;-141.84;84.99;20171.56;5028701;28;20288;-61
2023/10/13 08:23:14;;;;;;;9.38;6.90;;;17.80;99.90;;;-141.84;85.48;20191.88;5027620;28;20241;-60
2023/10/13 08:28:54;;;;;;;9.73;6.50;;;17.70;99.90;;;-141.84;84.28;20218.31;5038829;28;20287;-58
2023/10/13 08:31:26;;;;;;;8.77;6.15;;;17.80;99.90;;;-141.84;82.97;20242.69;5015273;28;20640;-59
2023/10/13 08:34:05;;;;;;;7.97;5.80;;;17.90;99.90;;;-141.84;83.23;20240.66;5038500;28;20260;-59
2023/10/13 08:36:38;;;;;;;6.88;6.18;;;17.90;99.90;;;-141.84;83.75;20220.34;5038748;28;20747;-59
2023/10/13 08:39:57;;;;;;;8.48;6.68;;;17.90;99.90;;;-141.84;84.07;20206.09;5030333;28;20639;-59
2023/10/13 08:42:11;;;;;;;7.00;6.30;;;17.90;99.90;;;-141.84;83.57;20216.25;5038937;28;20229;-60
2023/10/13 08:44:51;;;;;;;10.55;6.95;;;17.90;99.90;;;-141.84;83.38;20214.22;5038873;28;20598;-60
2023/10/13 08:47:24;;;;;;;8.65;6.43;;;17.90;99.90;;;-141.84;83.10;20191.88;5011741;28;20222;-59
2023/10/13 08:50:10;;;;;;;7.15;6.45;;;18.00;99.90;;;-141.84;83.56;20183.75;5035447;28;20233;-59
2023/10/13 08:52:48;;;;;;;11.07;6.78;;;18.00;99.90;;;-141.84;84.00;20240.66;5038499;28;20654;-60
2023/10/13 08:55:39;;;;;;;10.13;6.40;;;18.00;99.90;;;-141.84;83.66;20258.94;5031006;28;20619;-60
2023/10/13 08:58:14;;;;;;;7.25;6.43;;;18.10;99.90;;;-141.84;82.54;20283.34;5038708;28;20533;-59
2023/10/13 09:00:56;;;;;;;7.88;6.25;;;18.20;99.90;;;-141.84;82.14;20346.34;5038754;28;20640;-60
2023/10/13 09:03:29;;;;;;;9.50;6.80;;;18.30;99.90;;;-141.84;81.04;20358.56;5029524;28;20237;-58
2023/10/13 09:06:00;;;;;;;8.95;6.63;;;18.40;99.90;;;-141.84;81.31;20305.69;5038158;28;20201;-59
2023/10/13 09:08:44;;;;;;;8.45;6.35;;;18.50;99.90;;;-141.84;80.30;20338.22;5037925;28;20213;-58
2023/10/13 09:11:12;;;;;;;9.90;6.38;;;18.50;99.90;;;-141.84;81.03;20336.19;5030249;28;20264;-59
2023/10/13 09:13:48;;;;;;;7.70;6.88;;;18.50;99.90;;;-141.84;81.47;20324.00;5038127;28;20226;-59
2023/10/13 09:19:11;;;;;;;9.23;6.28;;;18.50;99.90;;;-141.84;82.25;20303.66;5016273;28;20319;-59
2023/10/13 09:21:48;;;;;;;8.75;6.65;;;18.60;99.90;;;-141.84;82.08;20317.91;5025039;28;20233;-59
2023/10/13 09:24:27;;;;;;;6.90;6.20;;;18.50;99.90;;;-141.84;81.93;20313.84;5024530;28;20235;-59
2023/10/13 09:26:55;;;;;;;8.27;6.60;;;18.50;99.90;;;-141.84;81.77;20344.31;5024764;28;20256;-58
2023/10/13 09:29:24;;;;;;;7.80;6.47;;;18.60;99.90;;;-141.84;82.48;20301.63;5017097;28;20336;-60
2023/10/13 09:32:02;;;;;;;8.15;6.95;;;18.60;99.90;;;-141.84;82.33;20299.59;5012555;28;20878;-60
2023/10/13 09:34:33;;;;;;;8.27;6.65;;;18.50;99.90;;;-141.84;81.53;20334.16;5004210;28;20425;-57
2023/10/13 09:37:03;;;;;;;8.52;6.75;;;18.60;99.90;;;-141.84;81.73;20352.44;4997342;28;20293;-59
2023/10/13 09:39:48;;;;;;;8.38;6.90;;;18.60;99.90;;;-141.84;81.71;20311.78;5004626;28;20288;-56
2023/10/13 09:42:18;;;;;;;12.25;6.65;;;18.60;99.90;;;-141.84;82.05;20340.25;5005469;28;20236;-59
2023/10/13 09:44:55;;;;;;;9.00;6.90;;;18.70;99.90;;;-141.84;82.35;20354.47;4985313;28;20798;-60
2023/10/13 09:47:29;;;;;;;10.75;7.40;;;18.70;99.90;;;-141.84;80.32;20384.97;4978512;28;20231;-59
2023/10/13 09:50:13;;;;;;;6.95;6.25;;;18.80;99.90;;;-141.84;79.59;20439.84;4986491;28;20227;-61
2023/10/13 09:52:46;;;;;;;8.05;6.55;;;19.00;99.90;;;-141.84;79.45;20462.22;4984262;28;20259;-59
2023/10/13 09:55:26;;;;;;;8.63;6.15;;;19.00;99.90;;;-141.84;78.72;20458.16;4995271;28;20234;-60
2023/10/13 09:58:10;;;;;;;7.68;6.18;;;19.00;99.90;;;-141.84;79.70;20452.06;5004434;28;20214;-60
2023/10/13 10:00:46;;;;;;;9.00;6.25;;;19.00;99.90;;;-141.84;79.01;20413.44;5004263;28;20309;-60
2023/10/13 10:06:06;;;;;;;8.23;6.50;;;19.00;99.90;;;-141.84;78.79;20460.19;5003381;28;20222;-59
2023/10/13 10:08:34;;;;;;;9.48;6.72;;;19.00;99.90;;;-141.84;79.38;20378.88;5004318;28;20206;-60
2023/10/13 10:11:49;;;;;;;9.93;6.50;;;19.10;99.90;;;-141.84;79.10;20458.16;4995026;28;20231;-59
2023/10/13 10:14:28;;;;;;;7.95;5.97;;;19.00;99.90;;;-141.84;79.21;20466.28;5004050;28;20298;-58
2023/10/13 10:17:09;;;;;;;8.95;6.20;;;19.00;99.90;;;-141.84;78.64;20468.31;4994810;28;20223;-57
2023/10/13 10:19:54;;;;;;;11.18;6.45;;;19.20;99.90;;;-141.84;78.33;20490.66;5000221;28;20280;-58
2023/10/13 10:22:30;;;;;;;8.18;6.38;;;19.20;99.90;;;-141.84;77.24;20496.78;5003032;28;20341;-58
2023/10/13 10:24:59;;;;;;;9.25;6.00;;;19.30;99.90;;;-141.84;77.58;20511.00;5012659;28;20320;-60
2023/10/13 10:27:31;;;;;;;9.65;5.90;;;19.40;99.90;;;-141.84;76.43;20565.88;5029808;28;20234;-60
2023/10/13 10:30:01;;;;;;;9.82;6.03;;;19.40;99.90;;;-141.84;76.60;20571.97;5022155;28;20216;-59
2023/10/13 10:32:36;;;;;;;8.48;6.78;;;19.50;99.90;;;-141.84;76.11;20622.81;5033361;28;20217;-60
2023/10/13 10:35:09;;;;;;;10.45;6.45;;;19.60;99.90;;;-141.84;76.08;20616.69;5015786;28;20607;-58
2023/10/13 10:37:46;;;;;;;9.68;6.03;;;19.70;99.90;;;-141.84;75.31;20647.19;5025028;28;20321;-59
2023/10/13 10:40:33;;;;;;;10.75;6.10;;;19.80;99.90;;;-141.84;75.17;20639.06;5025248;28;20259;-59
2023/10/13 10:43:08;;;;;;;13.10;6.70;;;19.90;99.90;;;-141.84;74.66;20671.59;5022057;28;20234;-70
2023/10/13 10:46:00;;;;;;;12.05;6.47;;;19.90;99.90;;;-141.84;73.85;20744.78;5030219;28;20632;-72
2023/10/13 10:48:34;;;;;;;9.38;6.05;;;20.00;99.90;;;-141.84;74.14;20716.31;5025059;28;20238;-70
2023/10/13 10:51:13;;;;;;;12.30;6.35;;;20.10;99.90;;;-141.84;74.46;20704.13;5022045;28;20206;-70
2023/10/13 10:53:46;;;;;;;7.45;6.00;;;20.10;99.90;;;-141.84;74.20;20726.47;5025384;28;20660;-70
2023/10/13 10:56:24;;;;;;;8.95;6.35;;;20.20;99.90;;;-141.84;73.94;20754.94;5025181;28;20316;-70
2023/10/13 10:58:58;;;;;;;8.65;6.10;;;20.30;99.90;;;-141.84;73.81;20742.75;5019667;28;20225;-71
2023/10/13 11:01:33;;;;;;;8.60;5.75;;;20.30;99.90;;;-141.84;72.83;20793.56;4998675;28;20234;-71
2023/10/13 11:04:10;;;;;;;10.10;6.32;;;20.40;99.90;;;-141.84;73.67;20797.63;5014609;28;20234;-71
2023/10/13 11:06:42;;;;;;;12.55;6.15;;;20.40;99.90;;;-141.84;72.03;20878.94;5023765;28;20775;-73
2023/10/13 11:09:27;;;;;;;11.93;5.68;;;20.60;99.90;;;-141.84;71.76;20850.47;4998054;28;20198;-73
2023/10/13 11:11:57;;;;;;;9.77;5.88;;;20.60;99.90;;;-141.84;70.88;20899.28;5004887;28;20206;-71
2023/10/13 11:14:29;;;;;;;10.15;6.15;;;20.80;99.90;;;-141.84;71.49;20864.72;5005451;28;20666;-73
2023/10/13 11:17:04;;;;;;;9.50;5.47;;;20.70;99.90;;;-141.84;70.89;20913.50;5018644;28;20253;-72
2023/10/13 11:19:36;;;;;;;10.48;5.88;;;20.80;99.90;;;-141.84;70.61;20897.25;5024578;28;20583;-65
2023/10/13 11:22:29;;;;;;;10.55;5.60;;;20.80;99.90;;;-141.84;71.11;20909.44;5024471;28;20276;-68
2023/10/13 11:24:59;;;;;;;10.25;5.45;;;20.80;99.90;;;-141.84;70.69;20895.19;5024312;28;20288;-68
2023/10/13 11:30:15;;;;;;;9.45;5.80;;;20.80;99.90;;;-141.84;70.82;20907.41;5022973;28;20300;-71
2023/10/13 11:32:44;;;;;;;10.20;5.85;;;20.70;99.90;;;-141.84;70.18;20915.53;5024337;28;20293;-70
2023/10/13 11:35:20;;;;;;;15.13;5.75;;;20.80;99.90;;;-141.84;70.78;20876.91;5015677;28;20320;-70
2023/10/13 11:38:02;;;;;;;9.80;5.40;;;20.80;99.90;;;-141.84;70.85;20911.47;5024076;28;20280;-70
2023/10/13 11:40:44;;;;;;;8.30;5.05;;;20.80;99.90;;;-141.84;70.15;20921.63;5024053;28;20284;-72
2023/10/13 11:43:15;;;;;;;10.55;5.32;;;20.70;99.90;;;-141.84;70.61;20895.19;5017956;28;20301;-73
2023/10/13 11:45:55;;;;;;;10.60;5.32;;;20.70;99.90;;;-141.84;70.66;20954.16;5024214;28;20237;-71
2023/10/13 11:48:36;;;;;;;10.93;5.43;;;20.80;99.90;;;-141.84;69.78;20923.66;5024448;28;20237;-76
2023/10/13 11:51:07;;;;;;;11.50;5.22;;;20.90;99.90;;;-141.84;69.85;20944.00;5016750;28;20711;-74
2023/10/13 11:53:36;;;;;;;9.73;4.97;;;20.90;99.90;;;-141.84;69.16;20970.41;5024877;28;20328;-74
2023/10/13 11:56:08;;;;;;;10.35;5.43;;;20.90;99.90;;;-141.84;69.26;21004.97;5023744;28;20230;-73
2023/10/13 11:58:37;;;;;;;10.43;5.25;;;21.00;99.90;;;-141.84;69.98;20946.03;5022458;28;20226;-72
2023/10/13 12:01:20;;;;;;;10.52;5.70;;;20.90;99.90;;;-141.84;70.20;20980.59;5016983;28;20222;-73
2023/10/13 12:06:46;;;;;;;9.30;4.78;;;20.80;99.90;;;-141.84;70.94;20933.81;5027020;28;20228;-68
2023/10/13 12:09:41;;;;;;;7.18;5.00;;;20.90;99.90;;;-141.84;70.30;20948.06;5009272;28;20619;-68
2023/10/13 12:12:08;;;;;;;8.27;5.63;;;20.80;99.90;;;-141.84;70.00;20972.47;5023042;28;20209;-69
2023/10/13 12:14:37;;;;;;;9.50;6.03;;;20.90;99.90;;;-141.84;68.97;21082.25;5022824;28;20681;-69
2023/10/13 12:17:10;;;;;;;10.75;5.72;;;21.10;99.90;;;-141.84;68.63;21055.81;5016687;28;20253;-72
2023/10/13 12:19:40;;;;;;;11.10;5.05;;;21.30;99.90;;;-141.84;68.25;21159.50;5023306;28;20230;-70